Race Results for
Vacaville Gran Prix
Vacaville, CA
(Event Information)
View By:
Criterium on 08/28/2011

Note: Ranking points are NOT upgrade points. An explanation of ranking points can be found here.


Men - Cat1/2/3 - Master - 35-99

 Place Points NameCity, StateTime USAC #BibTeam
1121.41Dean LaBerge   Napa, CA00:00.0 67041  385 Team Specialized Racing Master
2126.39Patrick Briggs   Oakland, CA00:00.0 4838  347 Yahoo Cycling Team
3131.37Max Mack   Sacramento, CA00:00.0 45629  351 Health is Wealth
4136.35Dan Shore   Modesto, CA00:00.0 336300  394 Fun Sport Bikes Cycling Team
5141.33David Avila   Emerald Hills, CA00:00.0 55625  356 One Team Racing
6146.31Keith Szolusha   Saratoga, CA00:00.0 109435  359 CoreTechs Cycling Team
7151.29Matt Connolly (1 - Cat2)   Sacramento, CA00:00.0 302694  376 Rio Strada Racing
8156.27Robin VanValkenburgh   Yuba City, CA00:00.0 62349  397 Mercedes Benz-Folsom Bike
9161.25Denin Sahovic   Sunnyvale, CA00:00.0 271126  350 Squadra Ovest Cycling
10166.23Bubba Melcher   Reno, NV00:00.0 23961  386 Team Clover
11171.21Lawrence Nolan   Fremont, CA00:00.0 26205  387 Team Specialized Racing Master
12176.19Matthew Ream (2 - Cat2)   Verdi, NV00:00.0 211441  390 Great Basin Imaging | Kinetic
13181.17Dennis Hopp   San Jose, CA00:00.0 54895  384 SJBC
14186.15Chris Espy   Sacramento, CA00:00.0 61649  361 Morgan Stanley Smith Barney/Sp
15191.13Gregory Anderson   Vacaville, CA00:00.0 90802  371 Morgan Stanley Cycling Team
16196.11Richard Pepper   Sebastopol, CA00:00.0 99150  389 West Count Revolution
17UNKNOWN RIDER   00:00.0  358 -------
18206.07Joshua Dapice   Berkeley, CA00:00.0 141844  348 Audi
19211.05Michael Fine (1 - Cat3)   Vacaville, CA00:00.0 76882  381 Precision Stone Racing
20216.03Clark Natwick   San Mateo, CA00:00.0 25743  370 Peninsula Velo/Pomodoro
21221.01Peter Brown   Santa Barbara, CA00:00.0 118988  374 Team Clover
22225.99Michael Reese   Santa Maria, CA00:00.0 256589  349 Central Coast Tire CCT
23230.97Alex Holtz   Sacramento, CA00:00.0 61440  354 Morgan Stanley Smith Barney/Sp
24235.95Chris Black   San Luis Obispo, CA00:00.0 3814  373 Morgan Stanley Smith Barney /
25240.93Andre Tenthorey   Granite Bay, CA00:00.0 76561  346 Sacramento Golden Wheelmen
26245.91John Cavanaugh   Lafayette, CA00:00.0 172586  366 HDR Racing p/b Lombardi Sports
27250.89Dustin Diede   Napa, CA00:00.0 206844  379 Precision Stone Racing
28255.87Gordon Olson   Reno, NV00:00.0 105151  369 Reno Wheelmen
29260.85John O'Neill (3 - Cat2)   San Mateo, CA00:00.0 52722  360 Team Clover
30265.83Trevor White   Oakland, CA00:00.0 503  398 Hybrid Energy Products Cycling
31270.81Eric Cinnamon   Rohnert Park, CA00:00.0 273013  375 Red Peloton
32275.79Chris Ott   San Jose, CA00:00.0 26920  357 HDR Racing p/o Lombardi
DNSDouglas Rowland (Cat3)   Davis, CA00:00.0 295966  393 Davis Bike Club Race Team
DNSMarkus Roccaro   Burlingame, CA00:00.0 166766  391 Peninsula Velo/Pomodoro
DNSSteve Offerman   Sacramento, CA00:00.0 81992  388 Rio Strada Racing
DNSJeromy Cottell   Redwood City, CA00:00.0 273912  377 Peninsula Velo / Pomodoro
DNPRann Valdez   Pleasant Hill, CA00:00.0 142965  396 Precision Stone Racing
DNPNabil Samaan   Fair Oaks, CA00:00.0 177518  353 Hinehu
DNPRobert Winder (Cat2)   Lafayette, CA00:00.0 220285  399 HDR p/b Lombardi Sports
DNPMark Slavonia   San Francisco, CA00:00.0 49355  395 Peninsula Velo/Pomodoro
DNPScott Herring   Sausalito, CA00:00.0 236346  383 XxX Racing-AthletiCo
DNPJeffrey Galland   Paradise, CA00:00.0 127804  382 CHICO CORSA/SIERRA NEVADA
DNPThomas Dillon   Los Altos Hills, CA00:00.0 50011  380 Peninsula Velo/Pomodoro
DNPChris Dawson   Sacramento, CA00:00.0 224241  378 Rio Strada Racing
DNPRobert Pasco   Belmont, CA00:00.0 136970  372 SAFEWAY/PureRed Creative/Bicyc
DNPJ Clifford   Roseville, CA00:00.0 232661  368 Team Bicycles Plus/Sierra Neva
DNPRamsey Etchison (Cat3)   Truckee, CA00:00.0 251486  367 Marc Pro - Strava
DNPDaniel Martin   Pleasanton, CA00:00.0 179386  365 SAFEWAY/PureRed Creative/Bicyc
DNPJoseph Staron   Sacramento, CA00:00.0 132859  364 
DNPKeith DeFiebre   Prunedale, CA00:00.0 9046  363 Central Coast Cycling Club
DNPPatrick Tafoya   Redwood City, CA00:00.0 34910  362 SAFEWAY/PureRed Creative/Bicyc
DNPSteve Showler   Carmichael, CA00:00.0 32554  355 Morgan Stanley Smith Barney/Sp
DNPJohn Foster (Cat2)   Mountain View, CA00:00.0 43445  352 Form Fitness
DNPKarl Wurzbach   Fairfield, CA00:00.0 260329  345 Davis Bike Club Race Team

Men - Cat 5

 Place Points NameCity, StateTime USAC #BibTeam
1341.19Matthew Leary   Seattle, WA00:00.0 311391  891 Unattached
2356.74Clint Williams   Rio Linda, CA00:00.0 331630  899 Team BEER
3372.29Michael Larson   Truckee, CA00:00.0 234067  890 
4387.84Chris Morris   El Dorado Hills, CA00:00.0 316874  879 Team Revolutions
5403.39Charles McCabe   Novato, CA00:00.0 357059  892 
6418.94Jordan Gudebski   Oakland, CA00:00.0 356928  889 
7434.49John Schiefer   Union City, CA00:00.0 319966  895 
8450.04Jeff Farley   Rancho Cordova, CA00:00.0 339050  887 Kinetic Cycles
9465.59Jordan Stockton   Redwood City, CA00:00.0 332784  897 Peninsula Velo Pomodoro
10481.14Jeremy Dossetter   San Francisco, CA00:00.0 340854  881 
11496.69Jim Rademann   Folsom, CA00:00.0 331800  882 Team Revolutions
12512.24John Lenoach   Lafayette, CA00:00.0 335218  880 SJBC
13527.79LANCE BARTCZAK   Cool, CA00:00.0 353518  885 
14543.34Richard Nagel   Vacaville, CA00:00.0 345938  883 Grass Roots Racing pb Vinny th
15558.89John Chappell   Auburn, CA00:00.0 297614  886 
16574.44Josh Wallace   San Carlos, CA00:00.0 195757  898 Webcor/Alto Velo
17589.99Weston Schmidt   Vacaville, CA00:00.0 333886  896 Monticello Cycling Club
DNPDonal Pugh   Mill Valley, CA00:00.0 175958  894 
DNPManuel Penaloza   Sacramento, CA00:00.0 358311  893 Davis Bike Club
DNPDaniel FIFER   00:00.0  888 
DNPSeergio SAMOROR   00:00.0  884 
DNPZachary ISOAC   00:00.0  878 

Men - Cat 4

 Place Points NameCity, StateTime USAC #BibTeam
1180.12Ryan Moore   San Francisco, CA00:00.0 309356  936 Paradigm Cycles
2187.00giuseppe errico   Mountain View, CA00:00.0 353204  959 form fitness palo alto
3193.88Peter Kenton   Oakland, CA00:00.0 307426  966 Tieni Duro
4200.76Yutch Cowhie   Fair Oaks, CA00:00.0 261718  942 Rio Strada Racing
5207.64Nick McGowan   Rohnert Park, CA00:00.0 303653  972 Red Peloton
6214.52Branton Curt   Saratoga, CA00:00.0 218287  956 Los Gatos Bicycle Club
7221.40Francisco Padilla   Vallejo, CA00:00.0 160213  932 Taleo Racing
8228.28Peter Rumble   Santa Rosa, CA00:00.0 242773  983 ECHELON RACING DEVELOPMENT
9235.16Don Chapin   Salinas, CA00:00.0 348760  953 Don Chapin Monterey Bay Racing
10242.04Adam OCamb   Orinda Ca00:00.0 297136  947 Tieni Duro Junior Cycling Team
11248.92James Coudright   Vacaville Ca00:00.0 310351  955 Precision Stone Racing
12255.80Timothy Mualchin   Vacaville, CA00:00.0 197634  976 NA
13262.68Frank Ravizza   Brentwood, CA00:00.0 309418  981 VSRT/Livermore Cyclery
14269.56Herman Shum   Dublin, CA00:00.0 286381  986 Christian Cycling - Hammer Nut
15276.44Curt Mills   Gold River, CA00:00.0 299412  974 Team Bicycles Plus/Sierra Neva
16283.32Aaron Rindy   Reno, NV00:00.0 303731  982 
17290.20James Whitney   Lincoln, CA00:00.0 51073  996 Fusion Sport
18297.08joe walker   Aptos, CA00:00.0 331266  940 
19303.96Peter Tousignant   Belmont, CA00:00.0 231855  990 third pillar
20310.84Greg Tsutaoka   Oakland, CA00:00.0 296665  992 Berkeley Bike Club (BBC)
21317.72Remy CantoAdams   San Luis Obispo, CA00:00.0 299528  952 All Sport-Team Swift
22324.60frank sisneros   Vacaville, CA00:00.0 354246  987 Rays Cycle/Monticello Cycling
23331.48Jeff Slaton   Davis, CA00:00.0 293126  938 Davis Bike Club Race Team
24338.36Henry Nelson   Oakland, CA00:00.0 289117  977 Tieni Duro
25345.24Alexander Yermolovich   Santa Clara, CA00:00.0 220894  998 
26352.12Daniel Lee   Petaluma, CA00:00.0 113898  968 windsor bicycle center
27359.00Jonathan Penaloza   Sacramento, CA00:00.0 309141  978 DBC
28365.88Peter Spencer   Berkeley, CA00:00.0 282697  989 Taleo Racing
29372.76Dan Wait   San Luis Obispo, CA00:00.0 105160  995 SLO Nexus-Gym One
30379.64Charles Potts   Reno, NV00:00.0 291533  979 Kryki Sports
31386.52Darron Sturgeon   Reno, NV00:00.0 286787  930 Taleo Racing
32393.40Daniel Lebson   Folsom, CA00:00.0 295237  967 Rio Strada Racing
33400.28Alex Young   Davis, CA00:00.0 331168  999 UC Davis
34407.16Uri Friedman   San Francisco, CA00:00.0 202518  927 
35414.04Daniel Williams   Fairfield, CA00:00.0 333518  997 Precision Stone Racing
36420.92Daniel Petersen   Santa Rosa, CA00:00.0 280078  946 Fightin' Bobas
37427.80Jeff Tanforan   Orangevale, CA00:00.0 294020  944 Team Bicycles Plus/Sierra Neva
38434.68Allen Brumm   Foster City, CA00:00.0 195431  945 Webcor/Alto Velo
39441.56Nicholas Leland   Windsor, CA00:00.0 334480  969 Windsor Bicycle Center
40448.44Casey Fallon   Sacramento, CA00:00.0 331532  960 Rio Strada Racing
41455.32Nathanael Dunn   Fair Oaks, CA00:00.0 290357  958 Rio Strada Racing
42462.20Michael White   Folsom, CA00:00.0 299962  948 Team Bicycles Plus/Sierra Neva
43469.08Mark Powers   San Mateo, CA00:00.0 236460  980 Peninsula Velo/Pomodoro
44475.96Todd Dambly   Folsom, CA00:00.0 212968  957 Bicycle Planet
45482.84Russ Forthuber   Santa Cruz, CA00:00.0 196881  964 Taleo Racing
46489.72Kevin VanGundy   Fresno, CA00:00.0 331830  994 
47496.60Christopher Leibman   Palo Alto, CA00:00.0 314198  935 Webcor/Alto Velo
48503.48Reid Smith   Moraga, CA00:00.0 300086  943 Tieni Duro Junior Cycling Team
49510.36Chris Menicou   Fremont, CA00:00.0 314296  973 Team Fremont FFBC
50517.24Steve Loebach   Orangevale, CA00:00.0 254066  970 Tuesday Velo
51524.12Brandon Tyler   Sanmateo, CA00:00.0 298307  993 Peninsula Velo/Pomodoro
52531.00Maxwell Fogarty   Berkeley, CA00:00.0 339432  937 Tieni Duro
53537.88Michael Coppolino   San Francisco, CA00:00.0 237772  954 Unattached
DNSIsaac Sparling   San Francisco, CA00:00.0 331080  988 Dolce Vita Cycling
DNSHussein Saffouri   Piedmont, CA00:00.0 41848  985 Berkeley Bike Club (BBC)
DNSTim Mitchell   Sanfrancisco, CA00:00.0 282752  975 Evergreen Cycling
DNSBrett Habermann   Tiburon, CA00:00.0 288557  965 Evergreen Cycling
DNSRocky Fletcher   Sacramento , CA00:00.0 324460  963 Rio Strada Racing
DNSRobbie Farrens   Stockton, CA00:00.0 289433  961 DJs Produce - Rocket Sports-Tr
DNSJohn Anner   Albany, CA00:00.0 303115  949 Berkeley Bicycle Club
DNPMarc Trucano   Vacaville, CA00:00.0 332694  991 Precision Stone Racing
DNPHussein Saffouri   Piedmont, CA00:00.0 41848  984 Berkeley Bike Club (BBC)
DNPFrank Lunceford Sr   El Dorado Hills, CA00:00.0 273343  971 Bicycle Planet
DNPRocky Fletcher   Sacramento , CA00:00.0 324460  962 Rio Strada Racing
DNPDexter Aaron   San Carlos, CA00:00.0 304105  941 Peninsula Velo/Pomodoro
DNPCharles Himes   Santa Rosa, CA00:00.0 16249  939 Windsor Bicycle Center Cycling
DNPKalman Zeiger   San Francisco, CA00:00.0 237651  933 Chica Sexy
DNPJustin Madison   Vacaville, CA00:00.0 304658  928 Precision Stone Racing

Men - Cat 3

 Place Points NameCity, StateTime USAC #BibTeam
1160.95Thomas Dillon   Los Altos Hills, CA00:00.0 50011  970 Peninsula Velo/Pomodoro
2163.90Andre Tenthorey   Granite Bay, CA00:00.0 76561  940 Sacramento Golden Wheelmen
3166.85Henry Scholz   San Francisco, CA00:00.0 267795  954 Team Mike's Bikes
4169.80Kevin Tufts   Cameron Park, CA00:00.0 243434  996 Bicycle Planet
5172.75Richard Steele   El Dorado Hills, CA00:00.0 58347  941 Sacramento Golden Wheelmen
6175.70Jeff Schaller   Davis, CA00:00.0 317858  992 Davis Bike Club
7178.65Robby Liebherr   Reno, NV00:00.0 237449  933 Reno Wheelmen
8181.60Brandon BORTH   Lockeford, CA00:00.0 235761  965 L'Ecole No. 41
9184.55Jason Berens   Vacaville, CA00:00.0 296265  964 Team Bicycles Plus/Sierra Neva
10187.50Ryan Johnson   San Francisco, CA00:00.0 288483  975 Team Mike's Bikes
11190.45David Nasca   Roseville, CA00:00.0 41192  982 Folsom Bike
12193.40Denin Sahovic   Sunnyvale, CA00:00.0 271126  955 Squadra Ovest Cycling
13196.35Nick Kersmarki   Santa Rosa, CA00:00.0 226913  976 Red Peloton
14199.30Garrett Hankins   Carmichael, CA00:00.0 298571  948 Team Bicycles Plus/Sierra Neva
15202.25Tim Aiken   Stanford, CA00:00.0 327086  961 SJBC
16205.20Travis Lukens   Sonoma, CA00:00.0 204220  946 BCV/Scion
17208.15Kevin Willitts   S Lake Tahoe, CA00:00.0 192774  944 Team Bicycles Plus/Sierra Neva
18211.10Chad MacDonald   Pleasant Hill, CA00:00.0 170454  949 Wells Fargo Racing Team
19214.05Eric Zumwalt   Santa Rosa, CA00:00.0 53375  943 R4R-Make A Wish
20217.00Reese Levine   Orinda, CA00:00.0 263998  979 Tieni Duro
21219.95Marvin Hall   Sun City, CA00:00.0 328996  959 UC Cyclery/JW Floors
22222.90Alistair Eeckman   Berkeley, CA00:00.0 281189  942 Above Category Racing
23225.85Eric Davis   Novato, CA00:00.0 207923  939 Audi
24228.80Rick Lawton   Pleasanton, CA00:00.0 141309  978 Wells Fargo Racing Team
25231.75Patrick Thomas   Aptos, CA00:00.0 294849  937 
26234.70Chris LaBerge   Napa, CA00:00.0 229950  977 Team Specialized Racing Junior
27237.65Robert Napieralski   Springville, CA00:00.0 271499  981 Sacramento Golden Wheelmen
28240.60Eric Cinnamon   Rohnert Park, CA00:00.0 273013  966 Red Peloton
29243.55Zeke Mostov   San Francisco, CA00:00.0 294912  951 SJBC
30246.50Michael Roecklein   Lake Forest, CA00:00.0 259341  989 Becher +
31249.45Michael Reese   Santa Maria, CA00:00.0 256589  950 Central Coast Tire CCT
32252.40Gordon Olson   Reno, NV00:00.0 105151  947 Reno Wheelmen
33255.35Nick Kinney   Windsor, CA00:00.0 255460  952 Whole Athlete-Specialized
34258.30Bruno Pitton   Winters, CA00:00.0 240530  986 Davis Bike Club
35261.25Dennis Baker   Sacramento, CA00:00.0 255279  936 Sacramento Golden Wheelmen
36264.20Chris Dawson   Sacramento, CA00:00.0 224241  969 Rio Strada Racing
37267.15Curtis Hong   Dublin, CA00:00.0 305875  973 SJBC
38270.10Justin Leopold   Independence, MO00:00.0 299868  935 Celerity Cycling p/b Brooks Sy
39273.05nick baird   Sanger, CA00:00.0 309596  945 Sierra Pacific Racing
40276.00Ken Todd   Folsom, CA00:00.0 174881  994 Team Bicycles Plus/Sierra Neva
41278.95Andrew Alonis   Palo Alto, CA00:00.0 292239  962 Peninsula Velo/Pomodoro
42281.90Daniel Vigil   San Francisco, CA00:00.0 310724  938 Audi
43284.85Matthew Valencia   Los Altos, CA00:00.0 255576  997 Team Specialized Racing Junior
44287.80Chris Parod   Mather, CA00:00.0 270992  984 Team Bicycles Plus/Sierra Neva
45290.75Alvaro Mosquera   Sacramento, CA00:00.0 236809  980 Team Bicycles Plus/Sierra Neva
46293.70Matt Tufts   Placerville, CA00:00.0 240212  995 Bicycle Planet
47296.65Cyrus Behroozi   Menlo Park, CA00:00.0 40408  963 Form Fitness
48299.60Mark Slavonia   San Francisco, CA00:00.0 49355  993 Peninsula Velo/Pomodoro
49302.55David Grundman   Davis, CA00:00.0 240540  972 Davis Bike Club Race Team
50305.50Kashy Ghazzagh   Santa Rosa, CA00:00.0 295719  971 Red Peloton
51308.45Cody Kaiser   El Dorado Hills, CA00:00.0 202564  934 California Giant Berry Farms/S
52311.40Thomas Kindberg   Irvine, CA00:00.0 120660  953 UC Cyclery/JW Floors
53314.35Erik Salander   Belmont, CA00:00.0 195443  991 Peninsula Velo/Pomodoro
54317.30Kieran Cox   Oakland, CA00:00.0 244305  932 Berkeley Bicycle Club (BBC)
55320.25Michael Claudio   West Sacramento, CA00:00.0 248052  967 Davis Bike Club Race Team
DNSMatt Abbott   Santa Rosa, CA00:00.0 260224  960 Red Peloton
DNSJeromy Cottell   Redwood City, CA00:00.0 273912  968 Peninsula Velo / Pomodoro
DNSJoseph Ison   San Francisco, CA00:00.0 302419  974 Metromint Cycling
DNSPatrick Piccolo   Oakland , CA00:00.0 263815  985 TEAM CITY
DNSMarkus Roccaro   Burlingame, CA00:00.0 166766  988 Peninsula Velo/Pomodoro
DNSDouglas Rowland   Davis, CA00:00.0 295966  990 Davis Bike Club Race Team
DNPMichael Reese   Santa Maria, CA00:00.0 256589  987 central Coast Tire
DNPTom Vanderheiden   Pleasant Hill, CA00:00.0 263253  998 Wells Fargo Racing Team
DNPSteven Woo   Los Altos, CA00:00.0 38840  999 Third Pillar
DNPMarco Carvajal   San Francisco, CA00:00.0 305357  956 California Giant Berry Farms/S
DNPJohn Licatesi   Davis, CA00:00.0 183265  957 Davis Bike Club Race Team
DNPJohn Armer   El Dorado Hills, CA00:00.0 93144  958 Team Bicycles Plus/Sierra Neva
DNPRyan Oakes   Chico, CA00:00.0 258824  983 Bicycle Planet

Men - Pro/Cat 1/2

 Place Points NameCity, StateTime USAC #BibTeam
194.32James Mattis   Mountain View, CA00:00.0 127344  587 California Giant Berry Farms/S
296.78Justin Rossi   Reno, NV00:00.0 298550  557 Marc Pro - Strava
399.24Sam Bassetti (1 - Cat1)   San Geronimo, CA00:00.0 237712  555 Firefighters Cycling - Formigl
4101.70Joe Iannarelli   Vacaville, CA00:00.0 195783  547 Yahoo Cycling Team
5104.16Dana Williams   Mill Valley, CA00:00.0 295988  538 Fusion Sport USA
6106.62James LaBerge (2 - Cat1)   Napa, CA00:00.0 221376  586 Team Specialized Racing Junior
7109.08Joshua Carling   Rancho Cordova, CA00:00.0 234584  581 Michael David Winery Cycling T
8111.54Charles Hutcheson (3 - Cat1)   Sacramento, CA00:00.0 54686  560 XO COMMUNICATIONS/BATTLEY H-D
9114.00Tyler Brandt   Vallejo, CA00:00.0 210604  580 California Giant Berry Farms/S
10116.46Paul Penn   Hayward, CA00:00.0 57836  551 Wells Fargo Racing Team
11118.92Chris Stastny   Vacaville, CA00:00.0 249743  593 California Giant Berry Farms/S
12121.38Neil Bartley   San Jose, CA00:00.0 209268  565 Squadra Ovest Cycling
13123.84Nathan Freed   Tahoe City, CA00:00.0 86484  558 Marc Pro - Strava
14126.30Michael Jasinski (4 - Cat1)   Rocklin, CA00:00.0 269476  594 Fremont Bank Cycling Team
15128.76Wes Holloway (5 - Cat1)   Dublin Ca00:00.0 300531  584 Echelon Racing Development
16131.22Ryan Ramos   Berkeley, CA00:00.0 139348  542 RS 2 Energy
17Naoya YOSHIOHA   00:00.0  553 Kyoto Sangyo Univ
18136.14Rainier Schaefer   Sanfrancisco, CA00:00.0 304249  540 Team Mike's Bikes
19138.60John Bergmann (6 - Cat1)   Albany, CA00:00.0 187522  579 Team Clif Bar
20141.06Torey Philipp   El Dorado Hills, CA00:00.0 263055  589 Team Specialized Racing Junior
21UNKNOWN RIDER   00:00.0  573 -------
22145.98Evan Huffman   El Dorado Hills, CA00:00.0 256955  585 Cal Giant/Specialized
23148.44Adam Ross   Folsom, CA00:00.0 167796  592 Fremont Bank Cycling Team
24Keisuke KIMURA   00:00.0  552 Kyoto Sangyo Univ
25153.36Nicholas Newcomb   Nicasio, CA00:00.0 258299  554 Whole Athlete-Specialized
26155.82David Mesa   Crockett, CA00:00.0 243257  544 Team Chica Sexy
27158.28John Piasta   Santa Rosa, CA00:00.0 271963  576 All Sport-Team Swift
28Yuri YURCHANKA   00:00.0  561 McGuire
29163.20Christopher Dudley   Reno, NV00:00.0 285988  570 TEAM CLIF BAR Cycling
30165.66Rand Miller (7 - Cat1)   San Francisco, CA00:00.0 182990  536 Webcor/Alto Velo
31168.12Martin Acosta   East Palo Alto, CA00:00.0 291277  562 McGuire Cycling Team
32170.58Philip Mooney   San Rafael , CA00:00.0 206962  588 Team Raleigh
33173.04Kenny Strickland   San Ramon, CA00:00.0 270965  595 SJBC
34175.50Alexander Blease (1 - Cat2)   Chico, CA00:00.0 195515  578 Chico Corsa Cycling Club
35177.96Gregory White   Lafayette, CA00:00.0 246669  598 Davis Bike Club
DNSJames Enright   San Francisco, CA00:00.0 227219  582 Swamis
DNSSamuel Pickman (Cat1)   San Jose, CA00:00.0 133433  590 California Giant Berry Farms/S
DNSSteve Reaney (Cat1)   San Jose, CA00:00.0 133288  591 California Giant Berry Farms/S
DNSTodd Stone   Carmichael, CA00:00.0 249318   Fremont Bank Cycling Team
DNPRobert Evans (Cat2)   Scotts Valley, CA00:00.0 72893  534 McGuire Cycling Team
DNPJoe Dickerson   Los Gatos, CA00:00.0 306664  535 McGuire Cycling Team
DNPKris Lunning   San Rafael, CA00:00.0 121729  537 Marc Pro - Strava
DNPPaul Sumner   San Anselmo, CA00:00.0 47616  539 Divine Electric Norcal
DNPKeven Bricknell (Cat2)   San Francisco, CA00:00.0 253261  541 Team Mike's Bikes
DNPStephen Pelaez   San Francisco, CA00:00.0 64481  543 Bell Lap Racing
DNPNathanael Christensen   Clements, CA00:00.0 239919  548 Michael David Winery Cycling T
DNPStephen Leece (Cat1)   San Luis Obispo, CA00:00.0 282569  549 NOW-MS Society
DNPMark Marquez   Martinez, CA00:00.0 288881  559 Fremont Bank Cycling Team
DNPSergei Badeka   Palo Alto, CA00:00.0 118797  563 McGuire Cycling Team
DNPDavid McCook   Tampa Fl00:00.0 66627  564 McGuire Cycling Team
DNPMichael Jacques (Cat1)   Portola Valley, CA00:00.0 72022  566 TEAM CLIF BAR Cycling
DNPPatrick Briggs   Oakland, CA00:00.0 4838  567 Yahoo Cycling Team
DNPJoshua Dapice   Berkeley, CA00:00.0 141844  569 Audi
DNPRobert Pasco   Belmont, CA00:00.0 136970  571 SAFEWAY/PureRed Creative/Bicyc
DNPAlex Holtz   Sacramento, CA00:00.0 61440  574 Morgan Stanley Smith Barney/Sp
DNPSteve Showler   Carmichael, CA00:00.0 32554  575 Morgan Stanley Smith Barney/Sp
DNPKeith Szolusha (Cat1)   Saratoga, CA00:00.0 109435  577 CoreTechs Cycling Team
DNPJeffrey Galland   Paradise, CA00:00.0 127804  583 CHICO CORSA/SIERRA NEVADA
DNPBrandon Trafton (Cat1)   Sacramento, CA00:00.0 240033  596 California Giant Berry Farms/S
DNPRobin VanValkenburgh   Yuba City, CA00:00.0 62349  597 Mercedes Benz-Folsom Bike
DNPRussell White   Lafayette, CA00:00.0 236024  599 Davis Bike Club
DNPdavid everett   00:00.0 358090  550 Probikekit.com
DNPJesse Chebot   Berkeley, CA00:00.0 209391  568 Audi

Women - Cat3/4

 Place Points NameCity, StateTime USAC #BibTeam
1164.76Heather Ross   Felton, CA00:00.0 239612  492 Spokesman/Cloud Nine
2175.18Jennifer Kalich   Aromas00:00.0 297754  442 Cal Giant Cycling Team
3185.60Sarah Conover   Auburn, CA00:00.0 334218  489 Rio Strada Racing
4196.02Lindsay McAlpine   Kensington, CA00:00.0 316838  446 Dolce Vita Cycling
5206.44Korina Huizar   Roseville, CA00:00.0 332152  440 Metromint Cycling
6216.86Sofia Marin   San Francisco, CA00:00.0 318908  494 
7227.28Sunshine Townsend   Davis, CA00:00.0 327398  478 Team City Sacramento
8237.70Allyson Kutler   San Francisco, CA00:00.0 304509  444 Red Racing
9248.12Heather Lipana   Folsom, CA00:00.0 333090  491 Rio Strada Racing
10258.54Rhonda Serr   Reno00:00.0 278473  485 Dolce Vita Cycling
11268.96Cristina Hughes   Zephyr Cove, NV00:00.0 325664  477 
12279.38Marianne Hernandez   Davis, CA00:00.0 68813  439 Davis Bike Club
13Laura O'MEARA   00:00.0  488 
14300.22Margaret Winder   Lafayette, CA00:00.0 237600  480 HDR Racing p/b Lombardi Sports
15310.64Elena Joroski   San Jose, CA00:00.0 304925  441 SJBC
16321.06Claire Morgan   Gold River, CA00:00.0 335402  448 
17331.48Terri Mahannah   Reno, NV00:00.0 333450  484 Tri Valley Velo
18341.90Ann Stuart   Sacramento, CA00:00.0 250365  490 Touchstone Climbing
19352.32Maya Bacon (1 - Cat4)   Santa Rosa, CA00:00.0 333520  481 Early Bird Womens Developmenta
20362.74Karena Shannon   Castro Valley, CA00:00.0 266333  483 Sycomp Racing
21373.16Trudy Bjornsen   Dixon, CA00:00.0 180561  476 Davis Bike Club
22383.58Jill Eyres   Montara, CA00:00.0 282468  436 Team TIBCO II
23394.00Kameo Campisi   Vacaville, CA00:00.0 273109  479 Precision Stone Racing
24404.42Aliya Traficante   Chico, CA00:00.0 310825  450 Team TIBCO II
25414.84Kelly Mason (2 - Cat4)   San Francisco, CA00:00.0 329776  493 Dolce Vita Cycling
26425.26Anne Findlay Dowling   Sonora, CA00:00.0 238310  437 Team Type 1
27435.68Lalena Daigneault   San Luis Obispo, CA00:00.0 356657  495 Rio Strada Racing
28446.10Gale DeRosa   Gold River, CA00:00.0 332412  482 Metromint Cycling
29456.52Kate Furtner   Forestville, CA00:00.0 337588  438 Early bird Womens developmenta
30466.94Kristen Hill   Woodland, CA00:00.0 306378  486 Davis Bike Club Race Team
31477.36Deanna McKenzie   Santarosa, CA00:00.0 303472  447 Fightin' Bobas
32487.78Ann Kodani   Mountain View, CA00:00.0 143018  443 Team Tibco II
33498.20Kathryn Styer   San Francisco, CA00:00.0 309920  449 Early Bird Women's Development
34508.62June Nguyen   Santa Rosa00:00.0 277526  487 Precision Stone Racing
DNPStephanie Dameral   Vacaville, CA00:00.0 287351  475 Precision Stone Racing
DNPHeidi Littenberg   Reno, NV00:00.0 286191  445 Lost River Cycling

Women - Cat1/2/3

 Place Points NameCity, StateTime USAC #BibTeam
1107.72Olivia Dillon   Fairfax, CA00:00.0 232172  669 Peanut Butter & Co. TWENTY12
2113.24Katheryn Curi Mattis   Mountain View, CA00:00.0 161894  674 Webcor/Alto Velo
3118.76Jane Robertson   Davis, CA00:00.0 218607  679 Metromint Cycling
4124.28Mary Elizabeth Maroon   Sacramento, CA00:00.0 219555  694 Webcor/AltoVelo
5129.80Rikke Preisler   Redwood City, CA00:00.0 293725  697 Metromint Cycling
6135.32Kira Prokopakis   Santa Clara, CA00:00.0 283149  671 Los Gatos
7Rebecca WERNER   00:00.0  699 Webcor/Alto Velo
8146.36Michelle Melka   Baltimore, MD00:00.0 302454  695 RED Racing
9151.88susannah breen   Pleasant Hill, CA00:00.0 251128  686 Fremont Bank Cycling Team
10157.40Jennie Phillips   Danville, CA00:00.0 203722  696 Wells Fargo Racing Team
11162.92Kimberly Fong   Berkeley, CA00:00.0 238713  689 Michael David Winery Cycling T
12168.44Christine Riker   San Francisco, CA00:00.0 290240  675 Red Racing
13173.96Jane Despas   Menlo Park, CA00:00.0 105201  687 Yahoo! Cycling Team
14179.48Kate Ligler   Sausalito, CA00:00.0 206217  693 RED Racing
15185.00Josephine Morgan   Oakland, CA00:00.0 242553  668 Michael David Winery Cycling T
16190.52Vanessa Drigo   Charlotte, NC00:00.0 257356  680 Vanderkitten-Focus
17196.04Jennifer Reither   Boulder , CO00:00.0 146585  673 Vanderkitten
18201.56Emily Matheu   Oakland, CA00:00.0 277109  670 Red Racing
19207.08Cybil Silberman (1 - Cat3)   San Francisco, CA00:00.0 325510  681 Early Bird Womens Developmenta
20212.60Heather Nielson   Seattle, WA00:00.0 237346  678 Touchstone Climbing
21218.12Janelle Kellman   Sausalito, CA00:00.0 217916  692 RED Racing
22223.64Sarah Maile (1 - Cat2)   Sacramento, CA00:00.0 163025  682 Dans Bike Club
23229.16Patricia Black   San Luis Obispo, CA00:00.0 72039  685 Red Racing
24234.68Amy Russo   Santa Cruz, CA00:00.0 134488  677 Red Racing
25240.20Heather Lipana   Folsom, CA00:00.0 333090  631 Rio Strada Racing
26245.72Holly Liske (2 - Cat2)   Stanford, CA00:00.0 190109  676 Webcor/Alto Velo
27251.24Trudy Bjornsen (2 - Cat3)   Dixon, CA00:00.0 180561  683 Davis Bike Club
28256.76Jennifer Kalich   Aromas00:00.0 297754  691 Cal Giant Cycling Team
29262.28Starla Teddergreen   Portland, OR00:00.0 202033  672 Vanderkitten
DNSLauraleen Fenech   San Francisco, CA00:00.0 224272  688 los gatos
DNPRhonda Serr   Reno00:00.0 278473  698 Dolce Vita Cycling
DNPEmily Foxman   Mountain View, CA00:00.0 255430  690 Webcor/Alto Velo
DNPTerri Mahannah (Cat3)   Reno, NV00:00.0 333450  684 Tri Valley Velo

Report missing or incorrect license numbers

Volkswagen
SpyShimanoSierra NevadaBonk BreakerUSACDF
UCI USA Cycling is the official governing body for all disciplines of competitive cycling in the United States. The 501c3, membership-based organization aims both to achieve sustained success in international cycling competition and to grow competitive cycling in America while delivering an exceptional customer experience.
View Children's Online Privacy Protection Policy
US Olympic Committee